Huvudsida
METAR-TAF:

METAR-TAF

Flygplatser :

Linköping City Airport

Linköping, Sverige

latitud: 58-24N, longitud: 015-41E, höjd: 52 m

Aktuellt väderrapport

Denna rapport gjordes för 31 minuter sedan, klockan 04:20 UTC
Vind 5 kt från sydväst, varierande mellan syd och väst
Temperatur 3°C
Fuktighet 81%
Tryck 999 hPa
Sikt 10 km eller mer

METAR: ESSL 190420Z AUTO 23005KT 180V260 9999 NCD 03/00 Q0999

Tid: 05:51 (04:51 UTC)

Väderprognos

Denna rapport gjordes för 21 minuter sedan, klockan 04:30 UTC
Prognos gäller från 19 kl. 05 UTC till 19 kl. 12 UTC
Vind 8 kt från sydväst
Sikt 10 km eller mer
Spridda moln på en höjd av 3000 ft

TAF: ESSL 190430Z 1905/1912 22008KT 9999 SCT030

Aktuella väderrapporter och prognoser från 4000 flygplatser (METAR- och TAF-rapporter).

De tillgängliga stationerna syns som gula och röda prickar på kartan.

För musen över prickarna för att se namnen på stationerna.

Klicka sedan för att få väderrapporter och prognoser.

För att ändra kartan: Klicka på de gröna knapparna med ett svart kors på för att zooma in; den gröna knappen med ett streck på för att zooma ut; eller på de gröna pilarna för angränsande kartor.


METAR-TAF: